Terminal Aerodrome Forecast
Issued by NWS

Home | Current Version | Previous Version | Text Only | Print | Product List | Glossary On
Versions: 1 2 3 4 5 6 7 8 9 10 11 12
000
FTUS45 KRIW 152300
TAFBPI
TAF
KBPI 152323Z 1600/1624 30011KT P6SM SCT110
     FM160200 VRB06KT P6SM SCT120
     FM162000 30010KT P6SM VCSH SCT080=

USA.gov is the U.S. government's official web portal to all federal, state and local government web resources and services.